Alexandria, Ohio
Current Conditions -  °F | °C
As of 8:54 AM on Friday 31 Oct 2014 (Local Time) from KVTA Reporting Station
Broken Clouds Broken Clouds  
Wind Chill: 39°   Ceiling: 5000
Heat Index: 43°   Visibility: 10mi
Dew Point: 37°   Wind: 6mph
Humidity: 80%   Direction: 190°S
Pressure: 29.96"   Gusts: NA
Location:  40.09°N, 82.61°W
Report Text: KVTA 311254Z AUTO 19005KT 10SM BKN050 BKN090 06/03 A2996 RMK AO2 SLP147 T00610028
Loading
Personal Weather Stations






























Interactive Weather Map
Tropical Storm Tracking
New forecast layout! Learn more

10-Day Weather Forecast

Advertisements
Track Severe Weather on mobile